createdAt,value
2023-03-17T00:01:39.730Z,20.00
2023-03-17T00:04:06.309Z,20.00
2023-03-17T00:06:32.813Z,20.00
2023-03-17T00:08:59.253Z,20.00
2023-03-17T00:11:25.720Z,20.10
2023-03-17T00:13:52.200Z,20.10
2023-03-17T00:16:18.825Z,20.10
2023-03-17T00:18:45.347Z,20.10
2023-03-17T00:21:11.852Z,20.10
2023-03-17T00:23:38.321Z,20.10
2023-03-17T00:26:04.818Z,20.10
2023-03-17T00:28:31.283Z,20.10
2023-03-17T00:30:57.757Z,20.00
2023-03-17T00:33:24.264Z,20.10
2023-03-17T00:35:50.755Z,20.00
2023-03-17T00:38:17.235Z,20.00
2023-03-17T00:40:43.669Z,20.20
2023-03-17T00:43:10.179Z,20.10
2023-03-17T00:45:36.624Z,20.10
2023-03-17T00:48:03.110Z,20.10
2023-03-17T00:50:29.781Z,20.00
2023-03-17T00:52:56.402Z,20.10
2023-03-17T00:55:22.944Z,20.10
2023-03-17T00:57:49.428Z,20.10
2023-03-17T01:00:15.908Z,20.10
2023-03-17T01:02:42.381Z,20.10
2023-03-17T01:05:08.870Z,20.10
2023-03-17T01:07:35.394Z,20.10
2023-03-17T01:10:01.942Z,20.10
2023-03-17T01:12:28.421Z,20.20
2023-03-17T01:14:54.949Z,20.10
2023-03-17T01:17:21.416Z,20.10
2023-03-17T01:19:47.897Z,20.10
2023-03-17T01:22:14.367Z,20.10
2023-03-17T01:24:40.855Z,20.10
2023-03-17T01:27:07.374Z,20.10
2023-03-17T01:29:33.882Z,20.10
2023-03-17T01:32:00.448Z,20.00
2023-03-17T01:34:26.939Z,20.10
2023-03-17T01:36:53.436Z,20.10
2023-03-17T01:39:19.958Z,20.60
2023-03-17T01:41:46.489Z,20.10
2023-03-17T01:44:13.023Z,20.10
2023-03-17T01:46:39.488Z,20.20
2023-03-17T01:49:06.006Z,20.20
2023-03-17T01:51:32.529Z,20.20
2023-03-17T01:53:59.020Z,20.10
2023-03-17T01:56:25.514Z,20.10
2023-03-17T01:58:52.002Z,20.00
2023-03-17T02:01:18.498Z,20.00
2023-03-17T02:03:45.019Z,20.00
2023-03-17T02:06:11.726Z,20.00
2023-03-17T02:08:38.226Z,20.00
2023-03-17T02:11:04.735Z,19.90
2023-03-17T02:13:31.296Z,19.90
2023-03-17T02:15:57.801Z,19.90
2023-03-17T02:18:24.336Z,19.90
2023-03-17T02:20:50.851Z,19.90
2023-03-17T02:23:17.342Z,19.90
2023-03-17T02:25:43.813Z,19.90
2023-03-17T02:28:10.347Z,20.00
2023-03-17T02:30:36.952Z,19.70
2023-03-17T02:33:03.471Z,20.00
2023-03-17T02:35:30.187Z,20.00
2023-03-17T02:37:56.766Z,20.00
2023-03-17T02:40:23.302Z,20.00
2023-03-17T02:42:49.799Z,20.00
2023-03-17T02:45:16.356Z,20.10
2023-03-17T02:47:42.804Z,20.10
2023-03-17T02:50:09.305Z,20.10
2023-03-17T02:52:35.791Z,20.10
2023-03-17T02:55:02.283Z,20.10
2023-03-17T02:57:28.742Z,20.10
2023-03-17T02:59:55.211Z,20.10
2023-03-17T03:02:21.766Z,20.10
2023-03-17T03:04:48.306Z,20.10
2023-03-17T03:07:14.799Z,20.00
2023-03-17T03:09:41.299Z,20.10
2023-03-17T03:12:07.820Z,20.10
2023-03-17T03:14:34.276Z,20.10
2023-03-17T03:17:00.754Z,20.10
2023-03-17T03:19:27.250Z,20.20
2023-03-17T03:21:53.767Z,20.20
2023-03-17T03:24:20.279Z,20.10
2023-03-17T03:26:46.760Z,20.10
2023-03-17T03:29:13.275Z,20.10
2023-03-17T03:31:39.783Z,20.10
2023-03-17T03:34:06.264Z,20.10
2023-03-17T03:36:32.739Z,20.10
2023-03-17T03:38:59.257Z,20.20
2023-03-17T03:41:25.745Z,20.10
2023-03-17T03:43:52.269Z,20.10
2023-03-17T03:46:18.783Z,20.20
2023-03-17T03:48:45.318Z,20.10
2023-03-17T03:51:11.855Z,20.10
2023-03-17T03:53:38.369Z,19.10
2023-03-17T03:56:04.919Z,20.10
2023-03-17T03:58:31.380Z,20.10
2023-03-17T04:00:57.880Z,20.10
2023-03-17T04:03:24.381Z,20.10
2023-03-17T04:05:50.846Z,20.10
2023-03-17T04:08:17.388Z,20.10
2023-03-17T04:10:43.871Z,19.80
2023-03-17T04:13:10.340Z,20.20
2023-03-17T04:15:36.840Z,20.10
2023-03-17T04:18:03.328Z,20.20
2023-03-17T04:20:30.091Z,20.20
2023-03-17T04:22:56.752Z,20.20
2023-03-17T04:25:23.225Z,20.20
2023-03-17T04:27:49.727Z,20.20
2023-03-17T04:30:16.219Z,20.20
2023-03-17T04:32:42.789Z,20.20
2023-03-17T04:35:09.300Z,20.10
2023-03-17T04:37:35.787Z,20.10
2023-03-17T04:40:02.291Z,20.10
2023-03-17T04:42:28.743Z,20.10
2023-03-17T04:44:55.274Z,20.10
2023-03-17T04:47:21.736Z,20.20
2023-03-17T04:49:48.189Z,20.20
2023-03-17T04:52:14.648Z,20.20
2023-03-17T04:54:41.100Z,20.20
2023-03-17T04:57:07.587Z,20.10
2023-03-17T04:59:34.049Z,20.10
2023-03-17T05:02:00.578Z,20.00
2023-03-17T05:04:31.752Z,19.90
2023-03-17T05:06:58.679Z,20.00
2023-03-17T05:09:25.158Z,20.00
2023-03-17T05:11:51.640Z,20.00
2023-03-17T05:14:18.135Z,20.00
2023-03-17T05:16:44.636Z,20.00
2023-03-17T05:19:11.108Z,19.90
2023-03-17T05:21:37.571Z,19.90
2023-03-17T05:24:04.032Z,20.00
2023-03-17T05:26:30.532Z,19.90
2023-03-17T05:28:57.008Z,20.00
2023-03-17T05:31:23.533Z,20.00
2023-03-17T05:33:50.049Z,20.00
2023-03-17T05:36:16.550Z,20.00
2023-03-17T05:38:43.023Z,20.00
2023-03-17T05:41:09.528Z,20.10
2023-03-17T05:43:36.021Z,20.10
2023-03-17T05:46:02.517Z,20.00
2023-03-17T05:48:29.040Z,20.00
2023-03-17T05:50:55.660Z,20.10
2023-03-17T05:53:22.156Z,20.20
2023-03-17T05:55:48.625Z,20.20
2023-03-17T05:58:15.092Z,20.20
2023-03-17T06:00:41.580Z,20.10
2023-03-17T06:03:08.118Z,20.10
2023-03-17T06:05:34.664Z,20.10
2023-03-17T06:08:01.136Z,20.00
2023-03-17T06:10:27.617Z,20.00
2023-03-17T06:12:54.083Z,20.00
2023-03-17T06:15:20.536Z,20.00
2023-03-17T06:17:47.050Z,20.00
2023-03-17T06:20:13.491Z,20.00
2023-03-17T06:22:51.676Z,20.10
2023-03-17T06:25:27.458Z,20.10
2023-03-17T06:27:53.946Z,20.20
2023-03-17T06:30:20.443Z,20.10
2023-03-17T06:32:46.957Z,20.10
2023-03-17T06:35:13.445Z,20.10
2023-03-17T06:37:39.898Z,20.10
2023-03-17T06:40:06.346Z,20.10
2023-03-17T06:42:32.817Z,20.10
2023-03-17T06:44:59.313Z,20.20
2023-03-17T06:47:26.137Z,20.20
2023-03-17T06:49:52.677Z,20.20
2023-03-17T06:52:19.149Z,20.20
2023-03-17T06:54:45.653Z,20.20
2023-03-17T06:57:12.116Z,20.30
2023-03-17T06:59:38.578Z,20.20
2023-03-17T07:02:05.064Z,20.30
2023-03-17T07:04:31.614Z,20.30
2023-03-17T07:06:58.126Z,20.30
2023-03-17T07:09:24.609Z,20.30
2023-03-17T07:11:51.071Z,20.40
2023-03-17T07:14:17.553Z,20.40
2023-03-17T07:16:44.049Z,20.40
2023-03-17T07:19:10.544Z,20.40
2023-03-17T07:21:37.038Z,20.40
2023-03-17T07:24:03.527Z,20.40
2023-03-17T07:26:30.019Z,20.40
2023-03-17T07:28:56.493Z,20.40
2023-03-17T07:31:23.069Z,20.40
2023-03-17T07:33:49.570Z,20.40
2023-03-17T07:36:16.050Z,20.40
2023-03-17T07:38:42.603Z,20.50
2023-03-17T07:41:09.125Z,20.50
2023-03-17T07:43:35.628Z,20.50
2023-03-17T07:46:03.556Z,20.50
2023-03-17T07:48:31.609Z,20.50
2023-03-17T07:50:58.073Z,20.50
2023-03-17T07:53:24.519Z,20.50
2023-03-17T07:55:51.046Z,20.50
2023-03-17T07:58:17.508Z,20.50
2023-03-17T08:00:43.999Z,21.30
2023-03-17T08:03:11.199Z,20.50
2023-03-17T08:05:37.770Z,20.60
2023-03-17T08:08:04.309Z,20.50
2023-03-17T08:10:31.060Z,19.90
2023-03-17T08:12:57.816Z,20.50
2023-03-17T08:15:24.299Z,20.50
2023-03-17T08:17:50.933Z,20.50
2023-03-17T08:20:17.424Z,20.50
2023-03-17T08:22:43.968Z,20.50
2023-03-17T08:25:10.543Z,20.50
2023-03-17T08:27:37.082Z,20.50
2023-03-17T08:30:03.547Z,20.50
2023-03-17T08:32:30.078Z,20.40
2023-03-17T08:34:56.614Z,20.50
2023-03-17T08:37:23.079Z,20.40
2023-03-17T08:39:49.536Z,20.10
2023-03-17T08:42:16.036Z,20.40
2023-03-17T08:44:44.068Z,20.40
2023-03-17T08:47:10.677Z,20.40
2023-03-17T08:49:37.169Z,20.40
2023-03-17T08:52:03.701Z,20.40
2023-03-17T08:54:30.170Z,20.40
2023-03-17T08:56:56.643Z,20.40
2023-03-17T08:59:23.227Z,20.40
2023-03-17T09:01:49.776Z,20.40
2023-03-17T09:04:16.309Z,20.50
2023-03-17T09:06:59.396Z,20.50
2023-03-17T09:09:29.077Z,20.50
2023-03-17T09:11:55.586Z,20.50
2023-03-17T09:14:22.067Z,20.60
2023-03-17T09:16:48.516Z,20.60
2023-03-17T09:19:14.996Z,20.60
2023-03-17T09:21:41.450Z,20.60
2023-03-17T09:24:07.885Z,20.60
2023-03-17T09:26:34.336Z,20.60
2023-03-17T09:29:03.116Z,20.60
2023-03-17T09:31:30.313Z,20.60
2023-03-17T09:33:56.838Z,20.70
2023-03-17T09:36:23.568Z,20.60
2023-03-17T09:38:50.119Z,20.60
2023-03-17T09:41:16.660Z,20.60
2023-03-17T09:43:43.121Z,20.60
2023-03-17T09:46:09.647Z,20.60
2023-03-17T09:48:36.153Z,20.50
2023-03-17T09:51:02.684Z,20.20
2023-03-17T09:53:29.189Z,20.40
2023-03-17T09:55:55.657Z,20.40
2023-03-17T09:58:22.152Z,20.40
2023-03-17T10:00:48.642Z,20.40
2023-03-17T10:03:15.132Z,20.40
2023-03-17T10:05:41.678Z,20.40
2023-03-17T10:08:19.236Z,20.40
2023-03-17T10:10:54.684Z,20.40
2023-03-17T10:13:21.123Z,20.50
2023-03-17T10:15:47.642Z,20.50
2023-03-17T10:18:14.202Z,20.50
2023-03-17T10:20:40.687Z,20.40
2023-03-17T10:23:07.177Z,20.50
2023-03-17T10:25:34.029Z,20.50
2023-03-17T10:28:00.779Z,20.50
2023-03-17T10:30:27.369Z,20.90
2023-03-17T10:32:53.903Z,20.50
2023-03-17T10:35:20.404Z,20.50
2023-03-17T10:37:46.909Z,20.50
2023-03-17T10:40:13.356Z,20.50
2023-03-17T10:42:39.867Z,20.50
2023-03-17T10:45:06.367Z,20.40
2023-03-17T10:47:32.902Z,20.50
2023-03-17T10:49:59.397Z,20.40
2023-03-17T10:52:27.089Z,20.40
2023-03-17T10:54:53.592Z,20.40
2023-03-17T10:57:20.095Z,20.40
2023-03-17T10:59:46.567Z,20.40
2023-03-17T11:02:13.058Z,20.40
2023-03-17T11:04:39.503Z,20.40
2023-03-17T11:07:05.983Z,20.40
2023-03-17T11:09:32.457Z,20.40
2023-03-17T11:11:58.936Z,20.40
2023-03-17T11:14:25.437Z,20.40
2023-03-17T11:16:51.989Z,20.50
2023-03-17T11:19:18.526Z,20.40
2023-03-17T11:21:45.027Z,20.40
2023-03-17T11:24:11.524Z,20.40
2023-03-17T11:26:38.025Z,20.40
2023-03-17T11:29:04.550Z,20.40
2023-03-17T11:31:31.133Z,20.40
2023-03-17T11:33:57.743Z,20.40
2023-03-17T11:36:24.242Z,20.40
2023-03-17T11:38:50.710Z,20.40
2023-03-17T11:41:17.227Z,20.30
2023-03-17T11:43:43.714Z,20.00
2023-03-17T11:46:10.257Z,20.30
2023-03-17T11:48:36.787Z,20.40
2023-03-17T11:51:03.264Z,20.30
2023-03-17T11:53:29.769Z,20.30
2023-03-17T11:55:56.222Z,20.30
2023-03-17T11:58:22.736Z,20.30
2023-03-17T12:00:49.180Z,20.30
2023-03-17T12:05:42.774Z,20.30
2023-03-17T12:08:09.268Z,20.20
2023-03-17T12:10:35.742Z,20.00
2023-03-17T12:13:02.253Z,20.20
2023-03-17T12:15:28.771Z,20.20
2023-03-17T12:17:55.268Z,20.10
2023-03-17T12:20:21.733Z,20.20
2023-03-17T12:22:48.241Z,20.20
2023-03-17T12:25:14.745Z,20.20
2023-03-17T12:27:41.271Z,20.20
2023-03-17T12:30:07.764Z,20.20
2023-03-17T12:32:34.299Z,20.10
2023-03-17T12:35:00.833Z,20.90
2023-03-17T12:37:27.396Z,20.10
2023-03-17T12:39:53.873Z,20.10
2023-03-17T12:42:20.346Z,20.10
2023-03-17T12:44:46.814Z,20.10
2023-03-17T12:47:13.287Z,20.10
2023-03-17T12:49:39.756Z,20.50
2023-03-17T12:52:06.246Z,20.10
2023-03-17T12:54:32.759Z,19.90
2023-03-17T12:56:59.342Z,20.10
2023-03-17T12:59:25.846Z,18.50
2023-03-17T13:01:52.350Z,20.00
2023-03-17T13:04:18.872Z,20.00
2023-03-17T13:06:45.343Z,20.00
2023-03-17T13:09:11.844Z,20.00
2023-03-17T13:11:38.425Z,20.00
2023-03-17T13:14:04.944Z,20.00
2023-03-17T13:16:31.425Z,20.00
2023-03-17T13:18:57.954Z,20.00
2023-03-17T13:21:24.425Z,18.70
2023-03-17T13:23:50.884Z,20.00
2023-03-17T13:26:17.365Z,20.00
2023-03-17T13:28:43.876Z,20.00
2023-03-17T13:31:10.432Z,20.00
2023-03-17T13:33:36.975Z,20.00
2023-03-17T13:36:03.528Z,20.00
2023-03-17T13:38:30.048Z,20.00
2023-03-17T13:40:56.556Z,20.00
2023-03-17T13:43:23.051Z,19.90
2023-03-17T13:45:49.552Z,20.00
2023-03-17T13:48:16.101Z,20.00
2023-03-17T13:50:42.598Z,20.00
2023-03-17T13:53:09.107Z,19.90
2023-03-17T13:55:35.639Z,20.10
2023-03-17T13:58:02.156Z,19.90
2023-03-17T14:00:28.823Z,19.90
2023-03-17T14:02:55.393Z,19.90
2023-03-17T14:05:21.871Z,19.90
2023-03-17T14:07:48.364Z,19.90
2023-03-17T14:10:14.895Z,19.90
2023-03-17T14:12:41.348Z,19.90
2023-03-17T14:15:08.582Z,19.90
2023-03-17T14:17:35.151Z,19.90
2023-03-17T14:20:01.689Z,19.90
2023-03-17T14:22:28.157Z,19.90
2023-03-17T14:24:54.645Z,19.90
2023-03-17T14:27:21.138Z,19.90
2023-03-17T14:29:47.622Z,19.90
2023-03-17T14:32:14.087Z,19.80
2023-03-17T14:34:40.608Z,19.90
2023-03-17T14:37:07.092Z,19.90
2023-03-17T14:39:33.548Z,19.90
2023-03-17T14:42:00.038Z,19.80
2023-03-17T14:44:26.532Z,19.80
2023-03-17T14:46:53.060Z,19.80
2023-03-17T14:49:19.557Z,19.80
2023-03-17T14:51:46.050Z,19.80
2023-03-17T14:54:12.529Z,19.80
2023-03-17T14:56:39.072Z,19.80
2023-03-17T14:59:05.544Z,19.80
2023-03-17T15:01:32.148Z,19.80
2023-03-17T15:03:58.827Z,19.80
2023-03-17T15:06:25.337Z,19.80
2023-03-17T15:08:51.828Z,19.80
2023-03-17T15:11:18.320Z,19.80
2023-03-17T15:13:44.795Z,21.30
2023-03-17T15:16:11.280Z,19.70
2023-03-17T15:18:37.724Z,19.70
2023-03-17T15:21:04.185Z,19.70
2023-03-17T15:23:30.648Z,19.50
2023-03-17T15:25:57.130Z,19.70
2023-03-17T15:28:23.651Z,19.70
2023-03-17T15:30:50.539Z,19.70
2023-03-17T15:33:17.233Z,19.60
2023-03-17T15:35:43.842Z,19.70
2023-03-17T15:38:10.386Z,19.60
2023-03-17T15:40:36.895Z,19.60
2023-03-17T15:43:03.344Z,19.60
2023-03-17T15:45:29.968Z,19.60
2023-03-17T15:47:56.426Z,19.60
2023-03-17T15:50:22.913Z,19.60
2023-03-17T15:52:49.366Z,19.60
2023-03-17T15:55:15.877Z,19.50
2023-03-17T15:57:46.173Z,19.60
2023-03-17T16:00:17.369Z,19.60
2023-03-17T16:02:43.860Z,19.60
2023-03-17T16:05:10.381Z,19.60
2023-03-17T16:07:36.846Z,19.60
2023-03-17T16:10:03.416Z,19.60
2023-03-17T16:12:30.058Z,19.60
2023-03-17T16:14:56.548Z,19.60
2023-03-17T16:17:24.263Z,19.60
2023-03-17T16:19:51.758Z,19.60
2023-03-17T16:22:18.276Z,19.60
2023-03-17T16:24:44.781Z,19.60
2023-03-17T16:27:11.266Z,19.60
2023-03-17T16:29:37.781Z,19.50
2023-03-17T16:32:04.297Z,19.60
2023-03-17T16:34:30.776Z,19.70
2023-03-17T16:36:57.287Z,19.70
2023-03-17T16:39:23.794Z,19.80
2023-03-17T16:41:50.266Z,19.90
2023-03-17T16:44:16.814Z,19.80
2023-03-17T16:46:43.333Z,19.80
2023-03-17T16:49:09.858Z,19.70
2023-03-17T16:51:36.321Z,19.70
2023-03-17T16:54:02.826Z,19.70
2023-03-17T16:56:29.491Z,19.60
2023-03-17T16:58:56.002Z,19.60
2023-03-17T17:01:22.544Z,19.60
2023-03-17T17:03:49.059Z,19.60
2023-03-17T17:06:15.579Z,19.60
2023-03-17T17:08:42.027Z,19.60
2023-03-17T17:11:08.538Z,19.60
2023-03-17T17:13:35.016Z,19.60
2023-03-17T17:16:01.560Z,19.60
2023-03-17T17:18:28.071Z,19.60
2023-03-17T17:20:55.045Z,19.60
2023-03-17T17:23:21.548Z,19.60
2023-03-17T17:25:48.077Z,19.60
2023-03-17T17:28:14.585Z,19.60
2023-03-17T17:30:41.062Z,19.90
2023-03-17T17:33:07.584Z,19.60
2023-03-17T17:35:34.086Z,19.60
2023-03-17T17:38:00.626Z,19.60
2023-03-17T17:40:27.093Z,19.60
2023-03-17T17:42:53.550Z,19.60
2023-03-17T17:45:20.011Z,19.60
2023-03-17T17:47:46.517Z,19.60
2023-03-17T17:50:13.089Z,19.60
2023-03-17T17:52:39.559Z,19.60
2023-03-17T17:55:06.077Z,19.60
2023-03-17T17:57:32.637Z,19.60
2023-03-17T17:59:59.160Z,19.60
2023-03-17T18:02:25.641Z,19.60
2023-03-17T18:04:52.129Z,19.60
2023-03-17T18:07:18.657Z,19.60
2023-03-17T18:09:45.140Z,19.60
2023-03-17T18:12:11.646Z,19.60
2023-03-17T18:14:38.187Z,19.60
2023-03-17T18:17:04.667Z,19.60
2023-03-17T18:19:31.163Z,19.70
2023-03-17T18:21:57.687Z,19.60
2023-03-17T18:24:24.183Z,19.70
2023-03-17T18:26:50.705Z,19.70
2023-03-17T18:29:17.164Z,19.70
2023-03-17T18:31:43.694Z,19.70
2023-03-17T18:34:10.218Z,19.70
2023-03-17T18:36:36.740Z,19.70
2023-03-17T18:39:03.227Z,19.70
2023-03-17T18:41:29.795Z,19.80
2023-03-17T18:43:56.254Z,19.70
2023-03-17T18:46:22.814Z,19.70
2023-03-17T18:48:49.314Z,19.70
2023-03-17T18:51:15.759Z,19.70
2023-03-17T18:53:42.234Z,19.80
2023-03-17T18:56:08.682Z,19.80
2023-03-17T18:58:35.186Z,19.80
2023-03-17T19:01:01.749Z,19.80
2023-03-17T19:03:28.339Z,19.80
2023-03-17T19:05:54.809Z,19.80
2023-03-17T19:08:21.261Z,19.80
2023-03-17T19:10:47.746Z,19.80
2023-03-17T19:13:14.222Z,19.90
2023-03-17T19:15:40.764Z,19.80
2023-03-17T19:18:07.268Z,19.80
2023-03-17T19:20:34.876Z,19.70
2023-03-17T19:23:01.383Z,19.80
2023-03-17T19:25:27.904Z,19.80
2023-03-17T19:27:54.374Z,19.80
2023-03-17T19:30:20.847Z,19.80
2023-03-17T19:32:47.371Z,19.80
2023-03-17T19:35:13.824Z,19.80
2023-03-17T19:37:40.340Z,19.90
2023-03-17T19:40:06.823Z,19.80
2023-03-17T19:42:33.332Z,19.90
2023-03-17T19:44:59.835Z,19.80
2023-03-17T19:47:26.333Z,19.90
2023-03-17T19:49:52.801Z,19.90
2023-03-17T19:52:19.329Z,19.90
2023-03-17T19:54:45.837Z,19.90
2023-03-17T19:57:12.331Z,19.90
2023-03-17T19:59:38.847Z,19.90
2023-03-17T20:02:05.331Z,19.90
2023-03-17T20:04:31.875Z,19.90
2023-03-17T20:06:58.382Z,19.90
2023-03-17T20:09:24.872Z,19.90
2023-03-17T20:11:51.314Z,19.90
2023-03-17T20:14:17.790Z,19.90
2023-03-17T20:16:44.291Z,19.90
2023-03-17T20:19:10.781Z,20.00
2023-03-17T20:21:37.239Z,19.90
2023-03-17T20:24:03.705Z,20.00
2023-03-17T20:26:30.214Z,19.90
2023-03-17T20:28:56.676Z,19.90
2023-03-17T20:31:23.147Z,19.90
2023-03-17T20:33:49.665Z,19.90
2023-03-17T20:36:16.130Z,19.90
2023-03-17T20:38:42.587Z,20.00
2023-03-17T20:41:09.062Z,20.00
2023-03-17T20:43:35.581Z,19.90
2023-03-17T20:46:02.032Z,19.90
2023-03-17T20:48:28.526Z,19.90
2023-03-17T20:50:54.981Z,19.90
2023-03-17T20:53:21.527Z,19.90
2023-03-17T20:55:47.991Z,19.90
2023-03-17T20:58:14.508Z,19.80
2023-03-17T21:00:41.006Z,20.00
2023-03-17T21:03:07.485Z,19.90
2023-03-17T21:05:34.023Z,19.80
2023-03-17T21:08:00.564Z,20.00
2023-03-17T21:10:27.088Z,19.80
2023-03-17T21:12:53.645Z,19.80
2023-03-17T21:15:20.116Z,19.80
2023-03-17T21:17:46.570Z,19.80
2023-03-17T21:20:13.023Z,19.80
2023-03-17T21:22:39.535Z,19.80
2023-03-17T21:25:06.052Z,19.90
2023-03-17T21:27:32.530Z,19.90
2023-03-17T21:29:58.983Z,19.90
2023-03-17T21:32:25.457Z,19.90
2023-03-17T21:34:51.945Z,19.90
2023-03-17T21:37:18.428Z,19.90
2023-03-17T21:39:44.895Z,19.90
2023-03-17T21:42:11.381Z,19.90
2023-03-17T21:44:37.864Z,19.90
2023-03-17T21:47:04.353Z,19.90
2023-03-17T21:49:30.872Z,20.00
2023-03-17T21:51:57.382Z,20.00
2023-03-17T21:54:23.842Z,20.00
2023-03-17T21:56:50.286Z,20.00
2023-03-17T21:59:16.743Z,20.00
2023-03-17T22:01:43.299Z,20.00
2023-03-17T22:04:09.791Z,20.00
2023-03-17T22:06:36.349Z,20.00
2023-03-17T22:09:02.838Z,20.00
2023-03-17T22:11:29.346Z,20.00
2023-03-17T22:13:55.797Z,20.00
2023-03-17T22:16:22.323Z,19.90
2023-03-17T22:18:48.818Z,19.90
2023-03-17T22:21:15.331Z,19.90
2023-03-17T22:23:41.832Z,19.90
2023-03-17T22:26:08.309Z,19.90
2023-03-17T22:28:34.779Z,19.90
2023-03-17T22:31:01.293Z,19.90
2023-03-17T22:33:27.751Z,19.90
2023-03-17T22:35:54.257Z,19.90
2023-03-17T22:38:22.481Z,19.90
2023-03-17T22:40:50.112Z,19.90
2023-03-17T22:43:16.595Z,19.90
2023-03-17T22:45:43.153Z,19.80
2023-03-17T22:48:09.680Z,19.90
2023-03-17T22:50:36.222Z,20.10
2023-03-17T22:53:02.740Z,19.90
2023-03-17T22:55:29.191Z,19.90
2023-03-17T22:57:55.748Z,19.90
2023-03-17T23:00:22.221Z,19.90
2023-03-17T23:02:48.717Z,19.90
2023-03-17T23:05:15.167Z,19.90
2023-03-17T23:07:50.379Z,19.90
2023-03-17T23:10:17.395Z,19.90
2023-03-17T23:12:43.860Z,19.90
2023-03-17T23:15:10.348Z,19.90
2023-03-17T23:17:36.848Z,19.90
2023-03-17T23:20:03.349Z,19.90
2023-03-17T23:22:29.852Z,19.90
2023-03-17T23:24:56.346Z,19.90
2023-03-17T23:27:22.822Z,19.90
2023-03-17T23:29:49.296Z,19.90
2023-03-17T23:32:15.833Z,19.90
2023-03-17T23:34:42.328Z,19.90
2023-03-17T23:37:08.844Z,19.90
2023-03-17T23:39:35.321Z,19.90
2023-03-17T23:42:01.818Z,19.90
2023-03-17T23:44:28.283Z,19.90
2023-03-17T23:46:54.732Z,19.90
2023-03-17T23:49:21.199Z,19.90
2023-03-17T23:51:47.684Z,19.90
2023-03-17T23:54:14.151Z,19.90
2023-03-17T23:56:40.600Z,19.90
2023-03-17T23:59:07.058Z,19.90
